createdAt,value
2023-07-03T00:01:39.873Z,101188.81
2023-07-03T00:04:18.176Z,101190.09
2023-07-03T00:06:54.000Z,101185.97
2023-07-03T00:09:51.637Z,101188.66
2023-07-03T00:12:38.618Z,101180.09
2023-07-03T00:15:23.012Z,101181.28
2023-07-03T00:21:46.807Z,101183.72
2023-07-03T00:24:58.438Z,101181.69
2023-07-03T00:28:07.300Z,101176.13
2023-07-03T00:31:13.466Z,101181.41
2023-07-03T00:33:42.864Z,101176.41
2023-07-03T00:36:29.091Z,101176.63
2023-07-03T00:39:03.233Z,101180.38
2023-07-03T00:41:33.353Z,101174.13
2023-07-03T00:44:08.524Z,101175.38
2023-07-03T00:47:05.878Z,101168.25
2023-07-03T00:50:03.478Z,101156.25
2023-07-03T00:52:36.282Z,101158.59
2023-07-03T00:55:26.224Z,101162.22
2023-07-03T00:57:55.642Z,101163.09
2023-07-03T01:00:42.947Z,101161.22
2023-07-03T01:04:18.254Z,101150.78
2023-07-03T01:07:06.323Z,101157.91
2023-07-03T01:10:15.594Z,101151.53
2023-07-03T01:13:18.032Z,101158.28
2023-07-03T01:16:31.858Z,101163.13
2023-07-03T01:19:26.290Z,101157.09
2023-07-03T01:22:34.815Z,101166.03
2023-07-03T01:28:48.616Z,101157.53
2023-07-03T01:31:27.752Z,101151.72
2023-07-03T01:34:24.024Z,101156.44
2023-07-03T01:37:27.989Z,101149.88
2023-07-03T01:40:05.749Z,101153.00
2023-07-03T01:43:11.731Z,101142.00
2023-07-03T01:45:56.501Z,101142.91
2023-07-03T01:48:30.530Z,101135.31
2023-07-03T01:51:12.945Z,101136.03
2023-07-03T01:54:11.813Z,101132.75
2023-07-03T01:57:02.381Z,101127.28
2023-07-03T01:59:45.904Z,101128.53
2023-07-03T02:03:14.467Z,101125.31
2023-07-03T02:05:52.957Z,101126.19
2023-07-03T02:08:34.317Z,101126.13
2023-07-03T02:11:39.813Z,101125.94
2023-07-03T02:14:25.499Z,101127.91
2023-07-03T02:17:20.774Z,101120.41
2023-07-03T02:19:53.384Z,101124.84
2023-07-03T02:22:50.001Z,101123.56
2023-07-03T02:25:29.857Z,101118.22
2023-07-03T02:28:22.725Z,101115.28
2023-07-03T02:31:12.447Z,101113.38
2023-07-03T02:37:20.393Z,101109.94
2023-07-03T02:40:27.058Z,101111.47
2023-07-03T02:43:14.611Z,101099.50
2023-07-03T02:48:41.691Z,101117.75
2023-07-03T02:51:23.568Z,101116.16
2023-07-03T02:54:05.834Z,101117.13
2023-07-03T02:56:42.930Z,101113.19
2023-07-03T02:59:38.435Z,101103.91
2023-07-03T03:02:09.116Z,101107.03
2023-07-03T03:04:50.135Z,101123.09
2023-07-03T03:07:24.121Z,101111.13
2023-07-03T03:09:59.954Z,101106.69
2023-07-03T03:12:40.108Z,101109.06
2023-07-03T03:15:15.038Z,101110.50
2023-07-03T03:18:03.478Z,101109.25
2023-07-03T03:24:31.178Z,101113.47
2023-07-03T03:27:08.083Z,101108.91
2023-07-03T03:30:00.871Z,101114.81
2023-07-03T03:32:39.464Z,101110.44
2023-07-03T03:35:09.983Z,101117.38
2023-07-03T03:37:55.538Z,101111.09
2023-07-03T03:42:09.383Z,101112.91
2023-07-03T03:44:58.473Z,101111.66
2023-07-03T03:47:53.962Z,101113.50
2023-07-03T03:50:29.894Z,101113.78
2023-07-03T03:53:12.662Z,101117.53
2023-07-03T03:55:58.434Z,101110.25
2023-07-03T03:58:40.762Z,101110.47
2023-07-03T04:01:43.251Z,101112.63
2023-07-03T04:07:58.241Z,101109.38
2023-07-03T04:08:12.102Z,101109.75
2023-07-03T04:10:40.107Z,101109.91
2023-07-03T04:13:10.050Z,101119.88
2023-07-03T04:16:09.903Z,101120.59
2023-07-03T04:18:54.906Z,101121.00
2023-07-03T04:21:29.045Z,101121.81
2023-07-03T04:27:51.187Z,101127.19
2023-07-03T04:30:43.446Z,101130.34
2023-07-03T04:33:28.705Z,101130.53
2023-07-03T04:36:01.394Z,101140.94
2023-07-03T04:38:33.557Z,101139.94
2023-07-03T04:41:27.635Z,101141.50
2023-07-03T04:44:22.304Z,101148.38
2023-07-03T04:47:20.519Z,101149.50
2023-07-03T04:50:00.469Z,101142.47
2023-07-03T04:52:52.563Z,101146.66
2023-07-03T04:55:26.920Z,101152.97
2023-07-03T04:58:04.320Z,101155.31
2023-07-03T05:00:42.931Z,101153.38
2023-07-03T05:06:43.770Z,101156.94
2023-07-03T05:07:16.057Z,101152.69
2023-07-03T05:09:22.922Z,101156.97
2023-07-03T05:12:13.332Z,101152.53
2023-07-03T05:15:13.782Z,101152.81
2023-07-03T05:17:56.428Z,101159.19
2023-07-03T05:20:35.485Z,101158.31
2023-07-03T05:23:38.058Z,101153.72
2023-07-03T05:26:57.607Z,101163.59
2023-07-03T05:29:41.902Z,101156.28
2023-07-03T05:32:53.773Z,101157.41
2023-07-03T05:35:26.158Z,101152.28
2023-07-03T05:38:18.043Z,101155.81
2023-07-03T05:41:09.491Z,101150.50
2023-07-03T05:43:54.716Z,101149.59
2023-07-03T05:46:24.371Z,101150.28
2023-07-03T05:49:00.006Z,101154.22
2023-07-03T05:51:48.996Z,101157.31
2023-07-03T05:54:28.819Z,101158.03
2023-07-03T05:57:14.126Z,101162.06
2023-07-03T06:00:04.407Z,101153.44
2023-07-03T06:02:49.718Z,101159.19
2023-07-03T06:05:48.586Z,101153.72
2023-07-03T06:08:18.908Z,101151.06
2023-07-03T06:11:00.497Z,101153.28
2023-07-03T06:13:51.996Z,101151.84
2023-07-03T06:16:46.124Z,101157.59
2023-07-03T06:19:29.965Z,101160.19
2023-07-03T06:22:18.626Z,101158.00
2023-07-03T06:24:59.180Z,101159.84
2023-07-03T06:27:45.477Z,101157.78
2023-07-03T06:30:18.281Z,101156.41
2023-07-03T06:33:04.582Z,101156.41
2023-07-03T06:35:41.934Z,101160.34
2023-07-03T06:38:19.780Z,101157.16
2023-07-03T06:41:05.116Z,101170.09
2023-07-03T06:43:43.598Z,101170.22
2023-07-03T06:46:26.418Z,101168.72
2023-07-03T06:49:24.396Z,101168.00
2023-07-03T06:52:18.235Z,101166.50
2023-07-03T06:54:56.191Z,101171.72
2023-07-03T06:57:35.723Z,101168.13
2023-07-03T07:00:23.999Z,101176.06
2023-07-03T07:03:18.281Z,101178.56
2023-07-03T07:06:18.933Z,101172.81
2023-07-03T07:09:20.283Z,101183.38
2023-07-03T07:12:33.715Z,101182.63
2023-07-03T07:15:00.261Z,101184.03
2023-07-03T07:18:00.454Z,101182.44
2023-07-03T07:21:34.812Z,101185.50
2023-07-03T07:24:06.161Z,101181.63
2023-07-03T07:26:45.144Z,101189.72
2023-07-03T07:29:31.287Z,101189.44
2023-07-03T07:32:38.389Z,101194.69
2023-07-03T07:35:36.594Z,101191.47
2023-07-03T07:38:13.588Z,101197.28
2023-07-03T07:43:57.810Z,101195.88
2023-07-03T07:46:55.564Z,101195.81
2023-07-03T07:49:47.808Z,101196.47
2023-07-03T07:52:26.809Z,101190.03
2023-07-03T07:55:14.246Z,101188.09
2023-07-03T07:58:00.073Z,101191.69
2023-07-03T08:00:38.262Z,101200.56
2023-07-03T08:03:31.509Z,101188.16
2023-07-03T08:06:09.439Z,101190.22
2023-07-03T08:08:48.368Z,101192.66
2023-07-03T08:11:20.950Z,101181.47
2023-07-03T08:13:59.540Z,101193.50
2023-07-03T08:16:38.476Z,101187.97
2023-07-03T08:19:12.053Z,101187.34
2023-07-03T08:22:06.882Z,101181.19
2023-07-03T08:24:47.815Z,101189.22
2023-07-03T08:27:18.233Z,101183.53
2023-07-03T08:29:57.133Z,101188.38
2023-07-03T08:32:37.120Z,101186.41
2023-07-03T08:37:59.005Z,101183.69
2023-07-03T08:40:39.984Z,101184.38
2023-07-03T08:43:24.884Z,101182.31
2023-07-03T08:45:56.056Z,101184.84
2023-07-03T08:48:43.027Z,101193.97
2023-07-03T08:51:22.245Z,101193.63
2023-07-03T08:53:58.658Z,101188.50
2023-07-03T08:56:39.862Z,101191.69
2023-07-03T08:59:14.988Z,101194.53
2023-07-03T09:02:07.992Z,101195.41
2023-07-03T09:05:08.603Z,101188.78
2023-07-03T09:08:07.457Z,101193.13
2023-07-03T09:10:59.756Z,101195.09
2023-07-03T09:14:00.701Z,101202.31
2023-07-03T09:16:54.169Z,101199.97
2023-07-03T09:19:35.196Z,101200.78
2023-07-03T09:22:17.911Z,101199.16
2023-07-03T09:24:59.347Z,101199.22
2023-07-03T09:27:35.527Z,101194.47
2023-07-03T09:30:15.131Z,101199.34
2023-07-03T09:32:47.529Z,101197.78
2023-07-03T09:35:37.504Z,101199.34
2023-07-03T09:38:25.261Z,101191.34
2023-07-03T09:41:08.557Z,101196.09
2023-07-03T09:43:51.838Z,101199.34
2023-07-03T09:46:26.746Z,101201.84
2023-07-03T09:49:22.549Z,101197.81
2023-07-03T09:52:02.976Z,101192.25
2023-07-03T09:54:45.270Z,101188.28
2023-07-03T09:57:28.601Z,101189.88
2023-07-03T10:00:16.941Z,101190.22
2023-07-03T10:08:33.570Z,101188.28
2023-07-03T10:11:18.552Z,101192.25
2023-07-03T10:13:57.193Z,101197.81
2023-07-03T10:16:44.385Z,101185.13
2023-07-03T10:19:24.845Z,101190.69
2023-07-03T10:22:00.098Z,101181.91
2023-07-03T10:24:34.272Z,101186.31
2023-07-03T10:27:16.562Z,101183.53
2023-07-03T10:30:01.243Z,101188.31
2023-07-03T10:32:48.420Z,101188.31
2023-07-03T10:35:43.161Z,101191.50
2023-07-03T10:39:04.607Z,101187.13
2023-07-03T10:42:06.567Z,101189.94
2023-07-03T10:44:45.943Z,101189.13
2023-07-03T10:47:43.881Z,101186.75
2023-07-03T10:50:24.495Z,101191.53
2023-07-03T10:53:36.012Z,101195.50
2023-07-03T10:56:26.619Z,101195.09
2023-07-03T10:59:39.195Z,101195.50
2023-07-03T11:02:34.618Z,101204.25
2023-07-03T11:05:29.120Z,101194.63
2023-07-03T11:08:14.546Z,101189.09
2023-07-03T11:10:58.285Z,101193.81
2023-07-03T11:14:09.224Z,101189.78
2023-07-03T11:16:53.383Z,101199.31
2023-07-03T11:28:26.115Z,101208.44
2023-07-03T11:31:09.611Z,101209.59
2023-07-03T11:36:50.611Z,101211.63
2023-07-03T11:39:52.658Z,101212.88
2023-07-03T11:45:45.044Z,101219.91
2023-07-03T11:48:33.766Z,101223.94
2023-07-03T11:51:18.250Z,101226.69
2023-07-03T11:53:59.759Z,101226.34
2023-07-03T11:56:39.667Z,101226.34
2023-07-03T11:59:27.042Z,101222.38
2023-07-03T12:02:19.552Z,101223.56
2023-07-03T12:04:54.372Z,101221.53
2023-07-03T12:07:39.554Z,101222.31
2023-07-03T12:10:46.742Z,101221.53
2023-07-03T12:13:47.458Z,101227.81
2023-07-03T12:16:24.392Z,101231.03
2023-07-03T12:19:09.752Z,101233.38
2023-07-03T12:21:52.565Z,101230.19
2023-07-03T12:24:40.745Z,101235.69
2023-07-03T12:27:17.833Z,101244.94
2023-07-03T12:29:54.419Z,101236.53
2023-07-03T12:32:33.982Z,101240.38
2023-07-03T12:35:17.542Z,101242.75
2023-07-03T12:37:57.519Z,101245.50
2023-07-03T12:40:34.840Z,101256.34
2023-07-03T12:43:30.026Z,101256.75
2023-07-03T12:46:08.026Z,101248.41
2023-07-03T12:48:53.338Z,101256.25
2023-07-03T12:51:28.038Z,101249.91
2023-07-03T12:54:03.922Z,101248.38
2023-07-03T12:56:39.928Z,101242.75
2023-07-03T12:59:25.506Z,101253.88
2023-07-03T13:02:07.995Z,101250.22
2023-07-03T13:04:40.674Z,101243.13
2023-07-03T13:07:16.138Z,101240.38
2023-07-03T13:10:08.519Z,101245.97
2023-07-03T13:12:41.030Z,101253.00
2023-07-03T13:15:36.964Z,101254.94
2023-07-03T13:18:12.840Z,101256.03
2023-07-03T13:21:00.585Z,101250.63
2023-07-03T13:23:45.547Z,101255.78
2023-07-03T13:26:24.955Z,101268.44
2023-07-03T13:29:02.864Z,101252.50
2023-07-03T13:31:51.611Z,101264.03
2023-07-03T13:34:28.910Z,101267.06
2023-07-03T13:37:12.050Z,101261.25
2023-07-03T13:39:56.715Z,101254.50
2023-07-03T13:42:36.485Z,101251.53
2023-07-03T13:45:22.546Z,101256.66
2023-07-03T13:48:04.661Z,101261.59
2023-07-03T13:50:34.180Z,101259.28
2023-07-03T13:53:06.208Z,101267.31
2023-07-03T13:55:42.087Z,101273.66
2023-07-03T13:58:25.101Z,101254.13
2023-07-03T14:01:26.360Z,101255.38
2023-07-03T14:03:59.373Z,101251.41
2023-07-03T14:06:40.394Z,101245.97
2023-07-03T14:09:13.419Z,101249.22
2023-07-03T14:11:56.161Z,101255.66
2023-07-03T14:14:34.648Z,101253.31
2023-07-03T14:17:37.249Z,101253.75
2023-07-03T14:20:10.590Z,101247.00
2023-07-03T14:22:46.781Z,101259.66
2023-07-03T14:25:38.405Z,101255.66
2023-07-03T14:28:15.914Z,101262.06
2023-07-03T14:30:48.614Z,101263.59
2023-07-03T14:33:27.330Z,101269.63
2023-07-03T14:36:23.379Z,101266.13
2023-07-03T14:39:03.028Z,101272.50
2023-07-03T14:41:35.936Z,101267.72
2023-07-03T14:44:10.273Z,101262.56
2023-07-03T14:46:39.540Z,101263.78
2023-07-03T14:49:15.872Z,101262.22
2023-07-03T14:51:48.233Z,101261.03
2023-07-03T14:54:23.981Z,101261.09
2023-07-03T14:57:04.332Z,101258.34
2023-07-03T14:59:36.194Z,101259.94
2023-07-03T15:05:29.361Z,101261.59
2023-07-03T15:08:30.995Z,101263.22
2023-07-03T15:11:19.445Z,101251.28
2023-07-03T15:13:55.898Z,101260.06
2023-07-03T15:16:38.586Z,101264.44
2023-07-03T15:19:39.468Z,101268.44
2023-07-03T15:22:13.304Z,101273.22
2023-07-03T15:24:45.021Z,101272.44
2023-07-03T15:27:16.000Z,101268.84
2023-07-03T15:30:05.825Z,101280.00
2023-07-03T15:32:40.429Z,101271.25
2023-07-03T15:35:12.877Z,101271.25
2023-07-03T15:37:45.062Z,101277.59
2023-07-03T15:40:19.251Z,101280.00
2023-07-03T15:42:53.579Z,101291.97
2023-07-03T15:45:36.369Z,101289.16
2023-07-03T15:48:12.726Z,101286.34
2023-07-03T15:50:56.511Z,101287.13
2023-07-03T15:53:45.857Z,101295.16
2023-07-03T15:56:23.510Z,101291.09
2023-07-03T15:58:55.826Z,101293.47
2023-07-03T16:01:57.074Z,101292.66
2023-07-03T16:04:28.414Z,101299.75
2023-07-03T16:07:13.046Z,101298.97
2023-07-03T16:09:45.351Z,101299.69
2023-07-03T16:12:51.540Z,101304.13
2023-07-03T16:15:24.863Z,101300.84
2023-07-03T16:18:04.670Z,101292.41
2023-07-03T16:20:52.187Z,101292.31
2023-07-03T16:23:27.932Z,101295.59
2023-07-03T16:26:09.788Z,101292.41
2023-07-03T16:29:10.838Z,101290.66
2023-07-03T16:31:56.675Z,101298.59
2023-07-03T16:34:36.928Z,101301.69
2023-07-03T16:38:17.935Z,101290.25
2023-07-03T16:40:18.287Z,101297.75
2023-07-03T16:46:56.987Z,101288.31
2023-07-03T16:47:09.614Z,101294.31
2023-07-03T16:49:43.417Z,101286.22
2023-07-03T16:52:43.232Z,101283.69
2023-07-03T16:57:35.980Z,101278.50
2023-07-03T16:59:08.279Z,101288.00
2023-07-03T17:01:45.378Z,101281.13
2023-07-03T17:05:03.730Z,101275.47
2023-07-03T17:07:44.733Z,101269.69
2023-07-03T17:10:25.361Z,101264.72
2023-07-03T17:12:58.316Z,101261.44
2023-07-03T17:15:38.810Z,101265.22
2023-07-03T17:18:14.421Z,101265.69
2023-07-03T17:20:45.266Z,101266.69
2023-07-03T17:23:24.158Z,101265.69
2023-07-03T17:26:06.094Z,101265.03
2023-07-03T17:28:49.601Z,101252.63
2023-07-03T17:31:27.644Z,101245.69
2023-07-03T17:34:00.197Z,101247.19
2023-07-03T17:36:33.702Z,101247.63
2023-07-03T17:39:11.624Z,101249.25
2023-07-03T17:41:52.476Z,101258.53
2023-07-03T17:44:25.048Z,101254.16
2023-07-03T17:47:25.520Z,101248.94
2023-07-03T17:50:23.227Z,101246.31
2023-07-03T17:53:16.220Z,101247.81
2023-07-03T17:55:46.546Z,101243.13
2023-07-03T17:58:29.846Z,101244.19
2023-07-03T18:01:05.400Z,101242.56
2023-07-03T18:07:29.423Z,101236.63
2023-07-03T18:09:58.616Z,101236.53
2023-07-03T18:12:31.494Z,101227.34
2023-07-03T18:15:05.770Z,101224.69
2023-07-03T18:17:41.731Z,101224.06
2023-07-03T18:20:14.971Z,101222.69
2023-07-03T18:22:55.823Z,101223.94
2023-07-03T18:25:30.534Z,101214.69
2023-07-03T18:28:10.334Z,101212.97
2023-07-03T18:30:39.698Z,101206.94
2023-07-03T18:34:10.146Z,101211.38
2023-07-03T18:36:07.371Z,101215.53
2023-07-03T18:38:44.760Z,101205.78
2023-07-03T18:41:46.948Z,101193.56
2023-07-03T18:44:27.909Z,101185.78
2023-07-03T18:47:19.357Z,101183.66
2023-07-03T18:50:09.424Z,101183.69
2023-07-03T18:52:59.294Z,101181.50
2023-07-03T18:55:28.613Z,101177.06
2023-07-03T18:58:00.394Z,101177.56
2023-07-03T19:00:35.492Z,101174.75
2023-07-03T19:03:28.798Z,101170.69
2023-07-03T19:06:18.844Z,101170.03
2023-07-03T19:08:48.386Z,101170.38
2023-07-03T19:11:36.994Z,101172.91
2023-07-03T19:14:08.798Z,101160.59
2023-07-03T19:16:41.692Z,101165.63
2023-07-03T19:19:16.267Z,101165.97
2023-07-03T19:22:05.521Z,101161.50
2023-07-03T19:24:47.796Z,101168.16
2023-07-03T19:27:55.421Z,101162.16
2023-07-03T19:31:17.838Z,101155.16
2023-07-03T19:34:06.290Z,101161.69
2023-07-03T19:36:43.243Z,101164.25
2023-07-03T19:39:21.797Z,101157.78
2023-07-03T19:41:51.297Z,101158.84
2023-07-03T19:44:26.832Z,101159.72
2023-07-03T19:47:04.220Z,101163.78
2023-07-03T19:49:43.111Z,101159.25
2023-07-03T19:52:26.993Z,101155.84
2023-07-03T19:55:17.772Z,101159.84
2023-07-03T19:57:57.042Z,101165.91
2023-07-03T20:00:41.375Z,101156.22
2023-07-03T20:03:17.557Z,101168.56
2023-07-03T20:05:51.218Z,101162.38
2023-07-03T20:08:43.971Z,101163.34
2023-07-03T20:11:21.452Z,101166.56
2023-07-03T20:13:55.423Z,101160.69
2023-07-03T20:16:42.511Z,101168.78
2023-07-03T20:19:23.588Z,101159.75
2023-07-03T20:22:04.279Z,101161.53
2023-07-03T20:24:40.491Z,101164.66
2023-07-03T20:27:28.850Z,101154.88
2023-07-03T20:30:00.757Z,101155.13
2023-07-03T20:32:32.804Z,101151.56
2023-07-03T20:35:49.194Z,101154.09
2023-07-03T20:38:51.094Z,101158.91
2023-07-03T20:41:33.415Z,101158.09
2023-07-03T20:47:05.994Z,101150.75
2023-07-03T20:49:42.655Z,101142.19
2023-07-03T20:52:22.204Z,101138.06
2023-07-03T20:55:24.843Z,101136.63
2023-07-03T20:58:06.806Z,101136.66
2023-07-03T21:01:28.737Z,101116.34
2023-07-03T21:04:11.509Z,101122.44
2023-07-03T21:07:12.654Z,101114.09
2023-07-03T21:10:01.726Z,101124.03
2023-07-03T21:12:45.819Z,101113.53
2023-07-03T21:15:20.763Z,101120.16
2023-07-03T21:18:06.420Z,101101.69
2023-07-03T21:20:46.603Z,101107.69
2023-07-03T21:23:24.089Z,101112.81
2023-07-03T21:25:56.471Z,101105.75
2023-07-03T21:28:31.960Z,101108.09
2023-07-03T21:31:17.185Z,101104.38
2023-07-03T21:34:12.970Z,101099.34
2023-07-03T21:36:53.119Z,101105.84
2023-07-03T21:39:48.233Z,101096.94
2023-07-03T21:42:27.141Z,101105.66
2023-07-03T21:48:38.861Z,101095.75
2023-07-03T21:51:24.134Z,101085.31
2023-07-03T21:54:04.415Z,101083.44
2023-07-03T21:56:41.796Z,101080.72
2023-07-03T21:59:23.891Z,101083.63
2023-07-03T22:02:01.251Z,101074.41
2023-07-03T22:04:41.141Z,101080.38
2023-07-03T22:07:17.597Z,101075.66
2023-07-03T22:09:49.923Z,101074.81
2023-07-03T22:12:45.199Z,101079.16
2023-07-03T22:15:17.294Z,101079.28
2023-07-03T22:18:07.053Z,101073.22
2023-07-03T22:21:00.894Z,101070.44
2023-07-03T22:23:53.294Z,101066.03
2023-07-03T22:26:52.445Z,101063.16
2023-07-03T22:29:45.101Z,101060.13
2023-07-03T22:32:21.959Z,101053.28
2023-07-03T22:35:15.904Z,101057.94
2023-07-03T22:38:05.118Z,101055.19
2023-07-03T22:41:30.211Z,101048.06
2023-07-03T22:44:04.345Z,101046.44
2023-07-03T22:46:36.961Z,101045.94
2023-07-03T22:49:27.853Z,101035.72
2023-07-03T22:52:17.721Z,101031.41
2023-07-03T22:54:55.275Z,101040.75
2023-07-03T22:57:42.862Z,101040.47
2023-07-03T23:00:36.336Z,101041.28
2023-07-03T23:03:47.123Z,101038.41
2023-07-03T23:06:51.016Z,101037.38
2023-07-03T23:09:26.480Z,101035.72
2023-07-03T23:12:13.148Z,101021.44
2023-07-03T23:14:42.634Z,101029.69
2023-07-03T23:17:45.077Z,101026.38
2023-07-03T23:20:57.540Z,101034.22
2023-07-03T23:23:32.382Z,101021.22
2023-07-03T23:26:32.785Z,101029.06
2023-07-03T23:29:14.112Z,101027.41
2023-07-03T23:31:51.602Z,101029.53
2023-07-03T23:34:24.226Z,101029.56
2023-07-03T23:37:02.849Z,101029.56
2023-07-03T23:39:35.828Z,101032.69
2023-07-03T23:42:17.203Z,101030.81
2023-07-03T23:45:01.345Z,101028.72
2023-07-03T23:47:57.668Z,101032.19
2023-07-03T23:50:41.863Z,101027.25
2023-07-03T23:53:18.230Z,101023.19
2023-07-03T23:58:38.336Z,101025.63
2023-07-03T23:59:31.663Z,101019.13
